sensor_id;sensor_type;location;lat;lon;timestamp;temperature;humidity
21662;DHT22;10992;48.170;8.596;2022-08-14T00:01:34;14.50;99.90
21662;DHT22;10992;48.170;8.596;2022-08-14T00:04:02;14.50;99.90
21662;DHT22;10992;48.170;8.596;2022-08-14T00:06:48;14.70;99.90
21662;DHT22;10992;48.170;8.596;2022-08-14T00:09:15;14.80;99.90
21662;DHT22;10992;48.170;8.596;2022-08-14T00:11:43;15.00;99.90
21662;DHT22;10992;48.170;8.596;2022-08-14T00:14:11;15.00;99.90
21662;DHT22;10992;48.170;8.596;2022-08-14T00:16:43;14.80;99.90
21662;DHT22;10992;48.170;8.596;2022-08-14T00:19:11;14.50;99.90
21662;DHT22;10992;48.170;8.596;2022-08-14T00:21:49;14.30;99.90
21662;DHT22;10992;48.170;8.596;2022-08-14T00:24:20;14.00;99.90
21662;DHT22;10992;48.170;8.596;2022-08-14T00:26:57;13.90;99.90
21662;DHT22;10992;48.170;8.596;2022-08-14T00:29:29;14.00;99.90
21662;DHT22;10992;48.170;8.596;2022-08-14T00:32:07;13.90;99.90
21662;DHT22;10992;48.170;8.596;2022-08-14T00:34:54;13.90;99.90
21662;DHT22;10992;48.170;8.596;2022-08-14T00:37:22;13.80;99.90
21662;DHT22;10992;48.170;8.596;2022-08-14T00:39:49;13.70;99.90
21662;DHT22;10992;48.170;8.596;2022-08-14T00:42:20;13.60;99.90
21662;DHT22;10992;48.170;8.596;2022-08-14T00:45:09;13.50;99.90
21662;DHT22;10992;48.170;8.596;2022-08-14T00:47:41;13.60;99.90
21662;DHT22;10992;48.170;8.596;2022-08-14T00:50:14;13.50;99.90
21662;DHT22;10992;48.170;8.596;2022-08-14T00:52:48;13.60;99.90
21662;DHT22;10992;48.170;8.596;2022-08-14T00:55:18;13.60;99.90
21662;DHT22;10992;48.170;8.596;2022-08-14T00:57:47;13.50;99.90
21662;DHT22;10992;48.170;8.596;2022-08-14T01:00:38;13.50;99.90
21662;DHT22;10992;48.170;8.596;2022-08-14T01:03:24;13.60;99.90
21662;DHT22;10992;48.170;8.596;2022-08-14T01:05:57;13.70;99.90
21662;DHT22;10992;48.170;8.596;2022-08-14T01:08:27;13.70;99.90
21662;DHT22;10992;48.170;8.596;2022-08-14T01:11:16;13.60;99.90
21662;DHT22;10992;48.170;8.596;2022-08-14T01:13:45;13.50;99.90
21662;DHT22;10992;48.170;8.596;2022-08-14T01:16:21;13.30;99.90
21662;DHT22;10992;48.170;8.596;2022-08-14T01:18:56;13.20;99.90
21662;DHT22;10992;48.170;8.596;2022-08-14T01:21:41;13.20;99.90
21662;DHT22;10992;48.170;8.596;2022-08-14T01:24:18;13.00;99.90
21662;DHT22;10992;48.170;8.596;2022-08-14T01:26:57;13.00;99.90
21662;DHT22;10992;48.170;8.596;2022-08-14T01:29:28;12.90;99.90
21662;DHT22;10992;48.170;8.596;2022-08-14T01:32:19;13.10;99.90
21662;DHT22;10992;48.170;8.596;2022-08-14T01:34:54;13.00;99.90
21662;DHT22;10992;48.170;8.596;2022-08-14T01:37:45;13.00;99.90
21662;DHT22;10992;48.170;8.596;2022-08-14T01:40:26;12.90;99.90
21662;DHT22;10992;48.170;8.596;2022-08-14T01:43:11;13.10;99.90
21662;DHT22;10992;48.170;8.596;2022-08-14T01:45:48;13.10;99.90
21662;DHT22;10992;48.170;8.596;2022-08-14T01:48:33;13.20;99.90
21662;DHT22;10992;48.170;8.596;2022-08-14T01:51:04;13.30;99.90
21662;DHT22;10992;48.170;8.596;2022-08-14T01:53:47;13.30;99.90
21662;DHT22;10992;48.170;8.596;2022-08-14T01:56:24;13.40;99.90
21662;DHT22;10992;48.170;8.596;2022-08-14T01:59:27;13.30;99.90
21662;DHT22;10992;48.170;8.596;2022-08-14T02:02:06;13.10;99.90
21662;DHT22;10992;48.170;8.596;2022-08-14T02:04:45;12.80;99.90
21662;DHT22;10992;48.170;8.596;2022-08-14T02:07:23;12.80;99.90
21662;DHT22;10992;48.170;8.596;2022-08-14T02:10:11;13.10;99.90
21662;DHT22;10992;48.170;8.596;2022-08-14T02:12:44;13.30;99.90
21662;DHT22;10992;48.170;8.596;2022-08-14T02:15:20;13.20;99.90
21662;DHT22;10992;48.170;8.596;2022-08-14T02:17:49;13.00;99.90
21662;DHT22;10992;48.170;8.596;2022-08-14T02:20:16;12.80;99.90
21662;DHT22;10992;48.170;8.596;2022-08-14T02:22:50;12.60;99.90
21662;DHT22;10992;48.170;8.596;2022-08-14T02:25:21;12.40;99.90
21662;DHT22;10992;48.170;8.596;2022-08-14T02:27:51;12.30;99.90
21662;DHT22;10992;48.170;8.596;2022-08-14T02:30:41;12.20;99.90
21662;DHT22;10992;48.170;8.596;2022-08-14T02:33:08;12.50;99.90
21662;DHT22;10992;48.170;8.596;2022-08-14T02:35:40;12.70;99.90
21662;DHT22;10992;48.170;8.596;2022-08-14T02:38:09;12.80;99.90
21662;DHT22;10992;48.170;8.596;2022-08-14T02:40:37;12.50;99.90
21662;DHT22;10992;48.170;8.596;2022-08-14T02:43:06;12.30;99.90
21662;DHT22;10992;48.170;8.596;2022-08-14T02:45:33;12.20;99.90
21662;DHT22;10992;48.170;8.596;2022-08-14T02:48:12;12.20;99.90
21662;DHT22;10992;48.170;8.596;2022-08-14T02:50:59;12.10;99.90
21662;DHT22;10992;48.170;8.596;2022-08-14T02:53:30;12.00;99.90
21662;DHT22;10992;48.170;8.596;2022-08-14T02:56:00;12.00;99.90
21662;DHT22;10992;48.170;8.596;2022-08-14T02:58:31;12.00;99.90
21662;DHT22;10992;48.170;8.596;2022-08-14T03:00:59;11.90;99.90
21662;DHT22;10992;48.170;8.596;2022-08-14T03:03:27;11.90;99.90
21662;DHT22;10992;48.170;8.596;2022-08-14T03:06:01;11.80;99.90
21662;DHT22;10992;48.170;8.596;2022-08-14T03:08:28;11.80;99.90
21662;DHT22;10992;48.170;8.596;2022-08-14T03:11:02;11.90;99.90
21662;DHT22;10992;48.170;8.596;2022-08-14T03:13:34;11.90;99.90
21662;DHT22;10992;48.170;8.596;2022-08-14T03:16:03;12.00;99.90
21662;DHT22;10992;48.170;8.596;2022-08-14T03:18:47;12.20;99.90
21662;DHT22;10992;48.170;8.596;2022-08-14T03:21:20;12.20;99.90
21662;DHT22;10992;48.170;8.596;2022-08-14T03:23:49;12.00;99.90
21662;DHT22;10992;48.170;8.596;2022-08-14T03:26:19;12.00;99.90
21662;DHT22;10992;48.170;8.596;2022-08-14T03:28:56;11.90;99.90
21662;DHT22;10992;48.170;8.596;2022-08-14T03:31:27;11.90;99.90
21662;DHT22;10992;48.170;8.596;2022-08-14T03:33:55;11.80;99.90
21662;DHT22;10992;48.170;8.596;2022-08-14T03:36:26;11.80;99.90
21662;DHT22;10992;48.170;8.596;2022-08-14T03:39:14;11.80;99.90
21662;DHT22;10992;48.170;8.596;2022-08-14T03:41:53;11.70;99.90
21662;DHT22;10992;48.170;8.596;2022-08-14T03:44:21;11.60;99.90
21662;DHT22;10992;48.170;8.596;2022-08-14T03:47:09;11.60;99.90
21662;DHT22;10992;48.170;8.596;2022-08-14T03:49:37;11.50;99.90
21662;DHT22;10992;48.170;8.596;2022-08-14T03:52:09;11.40;99.90
21662;DHT22;10992;48.170;8.596;2022-08-14T03:54:56;11.30;99.90
21662;DHT22;10992;48.170;8.596;2022-08-14T03:57:24;11.20;99.90
21662;DHT22;10992;48.170;8.596;2022-08-14T03:59:51;11.20;99.90
21662;DHT22;10992;48.170;8.596;2022-08-14T04:02:17;11.20;99.90
21662;DHT22;10992;48.170;8.596;2022-08-14T04:04:59;11.20;99.90
21662;DHT22;10992;48.170;8.596;2022-08-14T04:07:38;11.10;99.90
21662;DHT22;10992;48.170;8.596;2022-08-14T04:10:16;11.20;99.90
21662;DHT22;10992;48.170;8.596;2022-08-14T04:12:58;11.50;99.90
21662;DHT22;10992;48.170;8.596;2022-08-14T04:15:29;11.90;99.90
21662;DHT22;10992;48.170;8.596;2022-08-14T04:17:56;12.00;99.90
21662;DHT22;10992;48.170;8.596;2022-08-14T04:20:29;11.90;99.90
21662;DHT22;10992;48.170;8.596;2022-08-14T04:22:56;11.80;99.90
21662;DHT22;10992;48.170;8.596;2022-08-14T04:25:23;11.70;99.90
21662;DHT22;10992;48.170;8.596;2022-08-14T04:27:50;11.70;99.90
21662;DHT22;10992;48.170;8.596;2022-08-14T04:30:32;11.70;99.90
21662;DHT22;10992;48.170;8.596;2022-08-14T04:33:07;11.60;99.90
21662;DHT22;10992;48.170;8.596;2022-08-14T04:35:46;11.60;99.90
21662;DHT22;10992;48.170;8.596;2022-08-14T04:38:23;11.60;99.90
21662;DHT22;10992;48.170;8.596;2022-08-14T04:41:12;11.70;99.90
21662;DHT22;10992;48.170;8.596;2022-08-14T04:43:58;11.80;99.90
21662;DHT22;10992;48.170;8.596;2022-08-14T04:46:25;11.80;99.90
21662;DHT22;10992;48.170;8.596;2022-08-14T04:49:14;11.80;99.90
21662;DHT22;10992;48.170;8.596;2022-08-14T04:51:41;11.80;99.90
21662;DHT22;10992;48.170;8.596;2022-08-14T04:54:22;11.90;99.90
21662;DHT22;10992;48.170;8.596;2022-08-14T04:56:56;11.90;99.90
21662;DHT22;10992;48.170;8.596;2022-08-14T04:59:23;12.10;99.90
21662;DHT22;10992;48.170;8.596;2022-08-14T05:01:51;12.30;99.90
21662;DHT22;10992;48.170;8.596;2022-08-14T05:04:23;12.40;99.90
21662;DHT22;10992;48.170;8.596;2022-08-14T05:06:52;12.50;99.90
21662;DHT22;10992;48.170;8.596;2022-08-14T05:09:22;12.50;99.90
21662;DHT22;10992;48.170;8.596;2022-08-14T05:11:50;12.60;99.90
21662;DHT22;10992;48.170;8.596;2022-08-14T05:14:18;12.80;99.90
21662;DHT22;10992;48.170;8.596;2022-08-14T05:17:08;13.00;99.90
21662;DHT22;10992;48.170;8.596;2022-08-14T05:19:36;13.50;99.90
21662;DHT22;10992;48.170;8.596;2022-08-14T05:22:23;14.40;99.90
21662;DHT22;10992;48.170;8.596;2022-08-14T05:24:53;15.10;99.90
21662;DHT22;10992;48.170;8.596;2022-08-14T05:27:20;15.30;99.90
21662;DHT22;10992;48.170;8.596;2022-08-14T05:29:50;15.10;99.90
21662;DHT22;10992;48.170;8.596;2022-08-14T05:32:18;14.90;99.90
21662;DHT22;10992;48.170;8.596;2022-08-14T05:34:46;14.90;99.90
21662;DHT22;10992;48.170;8.596;2022-08-14T05:37:13;15.10;99.90
21662;DHT22;10992;48.170;8.596;2022-08-14T05:39:41;15.40;99.90
21662;DHT22;10992;48.170;8.596;2022-08-14T05:42:09;15.80;99.90
21662;DHT22;10992;48.170;8.596;2022-08-14T05:44:53;16.60;99.90
21662;DHT22;10992;48.170;8.596;2022-08-14T05:47:22;17.40;99.90
21662;DHT22;10992;48.170;8.596;2022-08-14T05:49:49;17.60;99.90
21662;DHT22;10992;48.170;8.596;2022-08-14T05:52:17;18.00;99.90
21662;DHT22;10992;48.170;8.596;2022-08-14T05:55:08;18.60;99.90
21662;DHT22;10992;48.170;8.596;2022-08-14T05:57:48;19.80;99.90
21662;DHT22;10992;48.170;8.596;2022-08-14T06:00:17;20.20;99.90
21662;DHT22;10992;48.170;8.596;2022-08-14T06:02:55;22.10;99.90
21662;DHT22;10992;48.170;8.596;2022-08-14T06:05:22;24.30;99.90
21662;DHT22;10992;48.170;8.596;2022-08-14T06:07:55;25.70;99.90
21662;DHT22;10992;48.170;8.596;2022-08-14T06:10:23;25.70;98.50
21662;DHT22;10992;48.170;8.596;2022-08-14T06:12:50;25.90;98.20
21662;DHT22;10992;48.170;8.596;2022-08-14T06:15:31;26.60;96.30
21662;DHT22;10992;48.170;8.596;2022-08-14T06:17:58;28.10;94.70
21662;DHT22;10992;48.170;8.596;2022-08-14T06:20:28;28.10;93.90
21662;DHT22;10992;48.170;8.596;2022-08-14T06:22:56;29.50;92.20
21662;DHT22;10992;48.170;8.596;2022-08-14T06:25:25;29.20;91.80
21662;DHT22;10992;48.170;8.596;2022-08-14T06:27:53;29.20;91.20
21662;DHT22;10992;48.170;8.596;2022-08-14T06:30:26;29.00;91.90
21662;DHT22;10992;48.170;8.596;2022-08-14T06:33:12;29.10;91.80
21662;DHT22;10992;48.170;8.596;2022-08-14T06:35:41;28.80;90.90
21662;DHT22;10992;48.170;8.596;2022-08-14T06:38:17;27.60;91.60
21662;DHT22;10992;48.170;8.596;2022-08-14T06:40:44;26.90;93.00
21662;DHT22;10992;48.170;8.596;2022-08-14T06:43:12;26.10;93.00
21662;DHT22;10992;48.170;8.596;2022-08-14T06:45:42;25.90;93.60
21662;DHT22;10992;48.170;8.596;2022-08-14T06:48:22;25.30;93.50
21662;DHT22;10992;48.170;8.596;2022-08-14T06:50:54;24.90;94.10
21662;DHT22;10992;48.170;8.596;2022-08-14T06:53:23;24.50;95.40
21662;DHT22;10992;48.170;8.596;2022-08-14T06:55:54;23.70;96.50
21662;DHT22;10992;48.170;8.596;2022-08-14T06:58:26;22.90;96.80
21662;DHT22;10992;48.170;8.596;2022-08-14T07:00:56;23.10;97.20
21662;DHT22;10992;48.170;8.596;2022-08-14T07:03:41;22.80;97.10
21662;DHT22;10992;48.170;8.596;2022-08-14T07:06:27;22.60;98.00
21662;DHT22;10992;48.170;8.596;2022-08-14T07:09:13;22.70;97.40
21662;DHT22;10992;48.170;8.596;2022-08-14T07:11:48;23.60;97.70
21662;DHT22;10992;48.170;8.596;2022-08-14T07:14:15;25.20;95.60
21662;DHT22;10992;48.170;8.596;2022-08-14T07:16:42;27.50;93.60
21662;DHT22;10992;48.170;8.596;2022-08-14T07:19:10;29.30;91.10
21662;DHT22;10992;48.170;8.596;2022-08-14T07:21:37;28.00;92.30
21662;DHT22;10992;48.170;8.596;2022-08-14T07:24:05;27.00;93.90
21662;DHT22;10992;48.170;8.596;2022-08-14T07:26:47;27.70;93.60
21662;DHT22;10992;48.170;8.596;2022-08-14T07:29:15;28.90;91.80
21662;DHT22;10992;48.170;8.596;2022-08-14T07:31:48;29.80;90.30
21662;DHT22;10992;48.170;8.596;2022-08-14T07:34:15;31.20;87.50
21662;DHT22;10992;48.170;8.596;2022-08-14T07:37:02;32.90;82.60
21662;DHT22;10992;48.170;8.596;2022-08-14T07:39:29;32.30;80.60
21662;DHT22;10992;48.170;8.596;2022-08-14T07:42:00;32.90;80.60
21662;DHT22;10992;48.170;8.596;2022-08-14T07:44:27;31.90;80.20
21662;DHT22;10992;48.170;8.596;2022-08-14T07:47:12;32.50;78.50
21662;DHT22;10992;48.170;8.596;2022-08-14T07:52:37;33.50;78.00
21662;DHT22;10992;48.170;8.596;2022-08-14T07:55:04;33.90;74.80
21662;DHT22;10992;48.170;8.596;2022-08-14T07:57:32;33.90;74.50
21662;DHT22;10992;48.170;8.596;2022-08-14T07:59:59;33.20;77.20
21662;DHT22;10992;48.170;8.596;2022-08-14T08:02:42;32.80;75.70
21662;DHT22;10992;48.170;8.596;2022-08-14T08:05:12;32.30;75.50
21662;DHT22;10992;48.170;8.596;2022-08-14T08:07:41;32.60;76.70
21662;DHT22;10992;48.170;8.596;2022-08-14T08:10:12;32.80;76.60
21662;DHT22;10992;48.170;8.596;2022-08-14T08:13:19;34.40;73.50
21662;DHT22;10992;48.170;8.596;2022-08-14T08:15:52;33.50;74.70
21662;DHT22;10992;48.170;8.596;2022-08-14T08:18:19;34.30;73.80
21662;DHT22;10992;48.170;8.596;2022-08-14T08:20:55;34.90;73.40
21662;DHT22;10992;48.170;8.596;2022-08-14T08:23:27;34.80;72.40
21662;DHT22;10992;48.170;8.596;2022-08-14T08:26:06;34.40;72.20
21662;DHT22;10992;48.170;8.596;2022-08-14T08:28:33;32.90;72.50
21662;DHT22;10992;48.170;8.596;2022-08-14T08:31:03;31.60;73.40
21662;DHT22;10992;48.170;8.596;2022-08-14T08:33:32;30.70;74.70
21662;DHT22;10992;48.170;8.596;2022-08-14T08:36:06;31.30;74.60
21662;DHT22;10992;48.170;8.596;2022-08-14T08:38:44;31.40;73.80
21662;DHT22;10992;48.170;8.596;2022-08-14T08:41:41;32.40;72.00
21662;DHT22;10992;48.170;8.596;2022-08-14T08:44:11;32.10;71.60
21662;DHT22;10992;48.170;8.596;2022-08-14T08:46:58;30.80;74.70
21662;DHT22;10992;48.170;8.596;2022-08-14T08:49:40;30.70;75.20
21662;DHT22;10992;48.170;8.596;2022-08-14T08:52:18;31.10;75.30
21662;DHT22;10992;48.170;8.596;2022-08-14T08:54:56;30.10;74.90
21662;DHT22;10992;48.170;8.596;2022-08-14T08:57:24;30.20;76.10
21662;DHT22;10992;48.170;8.596;2022-08-14T08:59:51;29.90;76.00
21662;DHT22;10992;48.170;8.596;2022-08-14T09:02:24;28.60;77.20
21662;DHT22;10992;48.170;8.596;2022-08-14T09:05:00;29.30;77.70
21662;DHT22;10992;48.170;8.596;2022-08-14T09:07:27;29.60;76.10
21662;DHT22;10992;48.170;8.596;2022-08-14T09:09:56;29.40;77.50
21662;DHT22;10992;48.170;8.596;2022-08-14T09:12:29;30.00;77.30
21662;DHT22;10992;48.170;8.596;2022-08-14T09:15:03;30.70;75.20
21662;DHT22;10992;48.170;8.596;2022-08-14T09:17:39;31.20;72.60
21662;DHT22;10992;48.170;8.596;2022-08-14T09:20:09;32.20;72.20
21662;DHT22;10992;48.170;8.596;2022-08-14T09:22:39;31.20;73.30
21662;DHT22;10992;48.170;8.596;2022-08-14T09:25:15;30.90;72.00
21662;DHT22;10992;48.170;8.596;2022-08-14T09:27:46;30.20;73.50
21662;DHT22;10992;48.170;8.596;2022-08-14T09:30:13;30.80;72.10
21662;DHT22;10992;48.170;8.596;2022-08-14T09:39:06;30.70;70.90
21662;DHT22;10992;48.170;8.596;2022-08-14T09:47:44;33.50;68.00
21662;DHT22;10992;48.170;8.596;2022-08-14T09:52:51;35.00;65.00
21662;DHT22;10992;48.170;8.596;2022-08-14T09:55:24;34.70;64.80
21662;DHT22;10992;48.170;8.596;2022-08-14T09:58:16;33.30;66.20
21662;DHT22;10992;48.170;8.596;2022-08-14T10:00:54;33.20;67.30
21662;DHT22;10992;48.170;8.596;2022-08-14T10:03:29;32.60;67.90
21662;DHT22;10992;48.170;8.596;2022-08-14T10:06:05;32.40;67.30
21662;DHT22;10992;48.170;8.596;2022-08-14T10:08:45;32.70;70.00
21662;DHT22;10992;48.170;8.596;2022-08-14T10:13:50;34.00;64.40
21662;DHT22;10992;48.170;8.596;2022-08-14T10:16:23;32.30;66.00
21662;DHT22;10992;48.170;8.596;2022-08-14T10:19:07;33.10;66.10
21662;DHT22;10992;48.170;8.596;2022-08-14T10:21:37;32.40;63.30
21662;DHT22;10992;48.170;8.596;2022-08-14T10:24:29;32.10;62.80
21662;DHT22;10992;48.170;8.596;2022-08-14T10:27:04;32.00;63.40
21662;DHT22;10992;48.170;8.596;2022-08-14T10:29:36;32.00;65.10
21662;DHT22;10992;48.170;8.596;2022-08-14T10:32:05;31.90;64.00
21662;DHT22;10992;48.170;8.596;2022-08-14T10:34:45;32.10;64.00
21662;DHT22;10992;48.170;8.596;2022-08-14T10:37:19;31.70;65.60
21662;DHT22;10992;48.170;8.596;2022-08-14T10:39:58;31.10;64.70
21662;DHT22;10992;48.170;8.596;2022-08-14T10:42:38;31.90;62.90
21662;DHT22;10992;48.170;8.596;2022-08-14T10:45:23;31.90;62.00
21662;DHT22;10992;48.170;8.596;2022-08-14T10:47:51;32.40;61.20
21662;DHT22;10992;48.170;8.596;2022-08-14T10:50:39;33.80;60.30
21662;DHT22;10992;48.170;8.596;2022-08-14T10:53:08;33.80;62.00
21662;DHT22;10992;48.170;8.596;2022-08-14T10:55:38;33.70;62.20
21662;DHT22;10992;48.170;8.596;2022-08-14T10:58:12;33.30;62.60
21662;DHT22;10992;48.170;8.596;2022-08-14T11:00:41;33.30;63.80
21662;DHT22;10992;48.170;8.596;2022-08-14T11:03:22;34.40;61.10
21662;DHT22;10992;48.170;8.596;2022-08-14T11:06:16;34.90;60.40
21662;DHT22;10992;48.170;8.596;2022-08-14T11:08:47;32.40;62.40
21662;DHT22;10992;48.170;8.596;2022-08-14T11:11:17;32.20;64.00
21662;DHT22;10992;48.170;8.596;2022-08-14T11:13:44;32.60;63.30
21662;DHT22;10992;48.170;8.596;2022-08-14T11:16:15;32.80;64.20
21662;DHT22;10992;48.170;8.596;2022-08-14T11:18:46;32.90;63.50
21662;DHT22;10992;48.170;8.596;2022-08-14T11:21:18;33.10;63.00
21662;DHT22;10992;48.170;8.596;2022-08-14T11:23:47;32.30;61.40
21662;DHT22;10992;48.170;8.596;2022-08-14T11:26:19;32.40;60.90
21662;DHT22;10992;48.170;8.596;2022-08-14T11:28:50;33.20;60.10
21662;DHT22;10992;48.170;8.596;2022-08-14T11:31:22;33.30;59.00
21662;DHT22;10992;48.170;8.596;2022-08-14T11:33:51;33.30;60.90
21662;DHT22;10992;48.170;8.596;2022-08-14T11:36:25;33.30;59.70
21662;DHT22;10992;48.170;8.596;2022-08-14T11:39:20;34.10;59.10
21662;DHT22;10992;48.170;8.596;2022-08-14T11:42:03;34.90;59.40
21662;DHT22;10992;48.170;8.596;2022-08-14T11:44:52;34.00;59.30
21662;DHT22;10992;48.170;8.596;2022-08-14T11:47:26;34.20;58.00
21662;DHT22;10992;48.170;8.596;2022-08-14T11:50:11;34.10;57.60
21662;DHT22;10992;48.170;8.596;2022-08-14T11:52:39;33.10;59.20
21662;DHT22;10992;48.170;8.596;2022-08-14T11:55:11;34.30;57.70
21662;DHT22;10992;48.170;8.596;2022-08-14T11:57:41;34.70;58.30
21662;DHT22;10992;48.170;8.596;2022-08-14T12:00:25;33.90;58.80
21662;DHT22;10992;48.170;8.596;2022-08-14T12:02:59;33.90;58.80
21662;DHT22;10992;48.170;8.596;2022-08-14T12:05:36;34.40;57.50
21662;DHT22;10992;48.170;8.596;2022-08-14T12:08:06;34.50;57.40
21662;DHT22;10992;48.170;8.596;2022-08-14T12:10:42;33.10;57.80
21662;DHT22;10992;48.170;8.596;2022-08-14T12:13:15;33.40;58.60
21662;DHT22;10992;48.170;8.596;2022-08-14T12:15:45;32.40;58.90
21662;DHT22;10992;48.170;8.596;2022-08-14T12:18:28;31.70;59.50
21662;DHT22;10992;48.170;8.596;2022-08-14T12:20:56;31.80;59.70
21662;DHT22;10992;48.170;8.596;2022-08-14T12:23:25;30.10;60.70
21662;DHT22;10992;48.170;8.596;2022-08-14T12:26:04;30.00;62.90
21662;DHT22;10992;48.170;8.596;2022-08-14T12:28:51;31.30;61.10
21662;DHT22;10992;48.170;8.596;2022-08-14T12:31:35;31.50;60.00
21662;DHT22;10992;48.170;8.596;2022-08-14T12:34:13;32.20;59.90
21662;DHT22;10992;48.170;8.596;2022-08-14T12:36:49;32.50;59.70
21662;DHT22;10992;48.170;8.596;2022-08-14T12:41:53;33.50;58.00
21662;DHT22;10992;48.170;8.596;2022-08-14T12:44:32;33.90;58.90
21662;DHT22;10992;48.170;8.596;2022-08-14T12:47:09;33.90;58.40
21662;DHT22;10992;48.170;8.596;2022-08-14T12:49:48;33.70;59.50
21662;DHT22;10992;48.170;8.596;2022-08-14T12:52:32;34.00;58.40
21662;DHT22;10992;48.170;8.596;2022-08-14T12:55:19;34.60;58.10
21662;DHT22;10992;48.170;8.596;2022-08-14T12:57:50;34.00;57.50
21662;DHT22;10992;48.170;8.596;2022-08-14T13:00:23;33.20;58.20
21662;DHT22;10992;48.170;8.596;2022-08-14T13:02:53;33.20;58.60
21662;DHT22;10992;48.170;8.596;2022-08-14T13:05:26;33.20;58.20
21662;DHT22;10992;48.170;8.596;2022-08-14T13:07:56;32.80;57.80
21662;DHT22;10992;48.170;8.596;2022-08-14T13:10:25;32.20;59.50
21662;DHT22;10992;48.170;8.596;2022-08-14T13:13:18;32.40;59.60
21662;DHT22;10992;48.170;8.596;2022-08-14T13:15:47;32.30;59.90
21662;DHT22;10992;48.170;8.596;2022-08-14T13:18:25;31.80;61.20
21662;DHT22;10992;48.170;8.596;2022-08-14T13:20:55;31.90;60.60
21662;DHT22;10992;48.170;8.596;2022-08-14T13:23:31;32.20;60.80
21662;DHT22;10992;48.170;8.596;2022-08-14T13:26:02;32.30;60.60
21662;DHT22;10992;48.170;8.596;2022-08-14T13:28:30;32.40;61.10
21662;DHT22;10992;48.170;8.596;2022-08-14T13:31:06;32.20;61.80
21662;DHT22;10992;48.170;8.596;2022-08-14T13:33:38;32.00;61.10
21662;DHT22;10992;48.170;8.596;2022-08-14T13:36:08;31.70;63.10
21662;DHT22;10992;48.170;8.596;2022-08-14T13:38:49;31.40;62.70
21662;DHT22;10992;48.170;8.596;2022-08-14T13:41:17;31.20;62.40
21662;DHT22;10992;48.170;8.596;2022-08-14T13:43:58;31.20;62.20
21662;DHT22;10992;48.170;8.596;2022-08-14T13:46:26;31.20;63.50
21662;DHT22;10992;48.170;8.596;2022-08-14T13:48:54;30.50;66.50
21662;DHT22;10992;48.170;8.596;2022-08-14T13:51:25;30.40;68.50
21662;DHT22;10992;48.170;8.596;2022-08-14T13:53:59;30.10;68.80
21662;DHT22;10992;48.170;8.596;2022-08-14T13:56:40;29.90;69.10
21662;DHT22;10992;48.170;8.596;2022-08-14T13:59:08;29.90;68.70
21662;DHT22;10992;48.170;8.596;2022-08-14T14:01:36;29.90;69.50
21662;DHT22;10992;48.170;8.596;2022-08-14T14:04:16;30.00;69.60
21662;DHT22;10992;48.170;8.596;2022-08-14T14:06:47;30.00;70.30
21662;DHT22;10992;48.170;8.596;2022-08-14T14:09:20;30.20;70.70
21662;DHT22;10992;48.170;8.596;2022-08-14T14:11:47;30.10;72.20
21662;DHT22;10992;48.170;8.596;2022-08-14T14:14:19;30.50;71.50
21662;DHT22;10992;48.170;8.596;2022-08-14T14:17:09;31.10;71.30
21662;DHT22;10992;48.170;8.596;2022-08-14T14:19:39;31.30;70.40
21662;DHT22;10992;48.170;8.596;2022-08-14T14:22:07;31.60;70.90
21662;DHT22;10992;48.170;8.596;2022-08-14T14:24:35;31.50;70.40
21662;DHT22;10992;48.170;8.596;2022-08-14T14:27:03;30.30;72.20
21662;DHT22;10992;48.170;8.596;2022-08-14T14:29:51;29.70;74.20
21662;DHT22;10992;48.170;8.596;2022-08-14T14:32:25;29.40;76.10
21662;DHT22;10992;48.170;8.596;2022-08-14T14:35:01;29.90;75.40
21662;DHT22;10992;48.170;8.596;2022-08-14T14:37:29;29.90;76.10
21662;DHT22;10992;48.170;8.596;2022-08-14T14:39:57;29.60;77.20
21662;DHT22;10992;48.170;8.596;2022-08-14T14:42:47;29.20;77.60
21662;DHT22;10992;48.170;8.596;2022-08-14T14:45:21;29.00;79.60
21662;DHT22;10992;48.170;8.596;2022-08-14T14:47:54;28.80;79.20
21662;DHT22;10992;48.170;8.596;2022-08-14T14:50:25;28.70;80.50
21662;DHT22;10992;48.170;8.596;2022-08-14T14:52:54;28.90;80.40
21662;DHT22;10992;48.170;8.596;2022-08-14T14:55:40;29.20;79.60
21662;DHT22;10992;48.170;8.596;2022-08-14T14:58:29;29.10;81.30
21662;DHT22;10992;48.170;8.596;2022-08-14T15:01:02;29.70;82.10
21662;DHT22;10992;48.170;8.596;2022-08-14T15:03:38;30.60;80.20
21662;DHT22;10992;48.170;8.596;2022-08-14T15:06:07;30.00;80.50
21662;DHT22;10992;48.170;8.596;2022-08-14T15:08:38;29.40;82.00
21662;DHT22;10992;48.170;8.596;2022-08-14T15:11:23;29.90;82.50
21662;DHT22;10992;48.170;8.596;2022-08-14T15:13:55;30.80;81.10
21662;DHT22;10992;48.170;8.596;2022-08-14T15:16:23;31.00;80.60
21662;DHT22;10992;48.170;8.596;2022-08-14T15:18:50;30.60;79.90
21662;DHT22;10992;48.170;8.596;2022-08-14T15:21:18;31.00;80.60
21662;DHT22;10992;48.170;8.596;2022-08-14T15:23:45;31.30;79.00
21662;DHT22;10992;48.170;8.596;2022-08-14T15:26:15;31.50;79.10
21662;DHT22;10992;48.170;8.596;2022-08-14T15:28:59;31.50;78.70
21662;DHT22;10992;48.170;8.596;2022-08-14T15:31:31;31.50;78.40
21662;DHT22;10992;48.170;8.596;2022-08-14T15:34:02;31.30;78.10
21662;DHT22;10992;48.170;8.596;2022-08-14T15:36:59;30.10;80.00
21662;DHT22;10992;48.170;8.596;2022-08-14T15:39:26;30.20;80.20
21662;DHT22;10992;48.170;8.596;2022-08-14T15:41:59;30.00;81.30
21662;DHT22;10992;48.170;8.596;2022-08-14T15:44:27;30.10;80.40
21662;DHT22;10992;48.170;8.596;2022-08-14T15:47:00;30.10;81.40
21662;DHT22;10992;48.170;8.596;2022-08-14T15:49:32;30.30;81.10
21662;DHT22;10992;48.170;8.596;2022-08-14T15:52:00;30.40;81.50
21662;DHT22;10992;48.170;8.596;2022-08-14T15:54:29;30.50;81.10
21662;DHT22;10992;48.170;8.596;2022-08-14T15:57:04;30.00;81.20
21662;DHT22;10992;48.170;8.596;2022-08-14T15:59:35;29.90;82.50
21662;DHT22;10992;48.170;8.596;2022-08-14T16:02:22;29.80;82.10
21662;DHT22;10992;48.170;8.596;2022-08-14T16:04:53;29.80;81.50
21662;DHT22;10992;48.170;8.596;2022-08-14T16:07:20;29.60;80.60
21662;DHT22;10992;48.170;8.596;2022-08-14T16:09:52;29.30;79.50
21662;DHT22;10992;48.170;8.596;2022-08-14T16:12:39;28.90;80.30
21662;DHT22;10992;48.170;8.596;2022-08-14T16:15:13;28.80;81.00
21662;DHT22;10992;48.170;8.596;2022-08-14T16:17:43;28.10;80.90
21662;DHT22;10992;48.170;8.596;2022-08-14T16:20:11;28.10;81.50
21662;DHT22;10992;48.170;8.596;2022-08-14T16:22:58;28.30;78.00
21662;DHT22;10992;48.170;8.596;2022-08-14T16:25:26;28.40;78.10
21662;DHT22;10992;48.170;8.596;2022-08-14T16:28:01;28.30;78.10
21662;DHT22;10992;48.170;8.596;2022-08-14T16:30:33;28.30;79.20
21662;DHT22;10992;48.170;8.596;2022-08-14T16:33:01;28.20;79.50
21662;DHT22;10992;48.170;8.596;2022-08-14T16:35:33;28.10;79.00
21662;DHT22;10992;48.170;8.596;2022-08-14T16:38:21;27.60;80.10